TOJ weather

Torrejón Airport
Madrid, Madrid, Spain

Public forecast

Using degrees Celsius for public forecast. Weather courtesy of forecast.io.

METAR (pilot weather report)

Retrieved 2019/09/16 01:00 UTC (2 minutes ago):

LETO 160100Z 03005KT 9999 FEW040 17/17 Q1021 NOSIG

TAF (pilot weather forecast)

Forecast is more than 12 hours old.

Retrieved 2019/09/15 00:27 UTC (1 day ago):

TAF LETO 152300Z 1600/1624 03008KT 9999 SCT020 BKN040 TX25/1615Z TN16/1606Z PROB30 TEMPO 1600/1604 4000 RA SHRA BKN012 SCT030TCU BECMG 1609/1611 VRB05KT